createdAt,value
2017-10-11T00:00:12.163Z,29.2
2017-10-11T00:01:11.701Z,29.2
2017-10-11T00:02:11.773Z,29.2
2017-10-11T00:03:12.051Z,29.2
2017-10-11T00:04:12.083Z,29.2
2017-10-11T00:05:12.142Z,29.2
2017-10-11T00:06:12.199Z,29.2
2017-10-11T00:07:12.265Z,29.2
2017-10-11T00:08:12.111Z,29.2
2017-10-11T00:09:12.112Z,29.2
2017-10-11T00:10:12.245Z,29.2
2017-10-11T00:11:12.207Z,29.2
2017-10-11T00:12:12.560Z,29.2
2017-10-11T00:13:12.549Z,29.2
2017-10-11T00:14:12.422Z,29.2
2017-10-11T00:15:12.462Z,29.2
2017-10-11T00:16:12.555Z,29.2
2017-10-11T00:17:12.569Z,29.2
2017-10-11T00:18:12.987Z,29.1
2017-10-11T00:19:12.711Z,29.1
2017-10-11T00:20:12.832Z,29.2
2017-10-11T00:21:13.120Z,29.2
2017-10-11T00:22:13.207Z,29.2
2017-10-11T00:23:13.261Z,29.2
2017-10-11T00:24:13.627Z,29.2
2017-10-11T00:25:13.167Z,29.2
2017-10-11T00:26:13.259Z,29.2
2017-10-11T00:27:13.484Z,29.2
2017-10-11T00:28:13.514Z,29.2
2017-10-11T00:29:13.627Z,29.2
2017-10-11T00:30:13.750Z,29.2
2017-10-11T00:31:13.543Z,29.2
2017-10-11T00:32:13.620Z,29.2
2017-10-11T00:33:13.651Z,29.2
2017-10-11T00:34:13.907Z,29.2
2017-10-11T00:35:13.754Z,29.2
2017-10-11T00:36:14.105Z,29.2
2017-10-11T00:37:14.088Z,29.2
2017-10-11T00:38:14.127Z,29.2
2017-10-11T00:39:13.932Z,29.2
2017-10-11T00:40:14.124Z,29.2
2017-10-11T00:41:13.975Z,29.2
2017-10-11T00:42:14.235Z,29.2
2017-10-11T00:43:14.216Z,29.2
2017-10-11T00:44:14.304Z,29.2
2017-10-11T00:45:14.132Z,29.2
2017-10-11T00:46:14.211Z,29.2
2017-10-11T00:47:14.453Z,29.2
2017-10-11T00:48:14.768Z,29.2
2017-10-11T00:49:14.607Z,29.2
2017-10-11T00:50:14.522Z,29.2
2017-10-11T00:51:14.532Z,29.2
2017-10-11T00:52:14.748Z,29.2
2017-10-11T00:53:14.581Z,29.2
2017-10-11T00:54:14.939Z,29.2
2017-10-11T00:55:14.967Z,29.2
2017-10-11T00:56:14.784Z,29.2
2017-10-11T00:57:15.100Z,29.2
2017-10-11T00:58:15.101Z,29.2
2017-10-11T00:59:15.226Z,29.2
2017-10-11T01:00:17.468Z,29.1
2017-10-11T01:01:15.356Z,29.1
2017-10-11T01:02:15.494Z,29.1
2017-10-11T01:03:15.207Z,29.2
2017-10-11T01:04:15.542Z,29.1
2017-10-11T01:05:15.575Z,29.2
2017-10-11T01:06:15.850Z,29.1
2017-10-11T01:07:15.360Z,29.1
2017-10-11T01:08:15.578Z,29.2
2017-10-11T01:09:15.442Z,29.1
2017-10-11T01:10:15.752Z,29.2
2017-10-11T01:11:15.567Z,29.2
2017-10-11T01:12:15.887Z,29.2
2017-10-11T01:13:15.733Z,29.2
2017-10-11T01:14:15.907Z,29.2
2017-10-11T01:15:15.959Z,29.2
2017-10-11T01:16:15.793Z,29.2
2017-10-11T01:17:16.074Z,29.2
2017-10-11T01:18:16.185Z,29.1
2017-10-11T01:19:15.953Z,29.2
2017-10-11T01:20:16.165Z,29.2
2017-10-11T01:21:16.608Z,29.2
2017-10-11T01:22:18.134Z,29.2
2017-10-11T01:23:17.654Z,29.2
2017-10-11T01:24:16.579Z,29.2
2017-10-11T01:25:17.938Z,29.2
2017-10-11T01:26:16.345Z,29.2
2017-10-11T01:27:16.599Z,29.2
2017-10-11T01:28:16.622Z,29.2
2017-10-11T01:29:16.739Z,29.2
2017-10-11T01:30:16.951Z,29.1
2017-10-11T01:31:16.797Z,29.2
2017-10-11T01:32:16.826Z,29.1
2017-10-11T01:33:16.696Z,29.1
2017-10-11T01:34:16.797Z,29.2
2017-10-11T01:35:16.844Z,29.1
2017-10-11T01:36:17.131Z,29.1
2017-10-11T01:37:16.993Z,29.2
2017-10-11T01:38:16.998Z,29.2
2017-10-11T01:39:16.819Z,29.1
2017-10-11T01:40:17.102Z,29.2
2017-10-11T01:41:16.852Z,29.2
2017-10-11T01:42:17.411Z,29.1
2017-10-11T01:43:16.975Z,29.2
2017-10-11T01:44:17.010Z,29.2
2017-10-11T01:45:17.158Z,29.2
2017-10-11T01:46:17.335Z,29.1
2017-10-11T01:47:17.389Z,29.2
2017-10-11T01:48:17.556Z,29.2
2017-10-11T01:49:17.441Z,29.2
2017-10-11T01:50:17.458Z,29.2
2017-10-11T01:51:17.354Z,29.2
2017-10-11T01:52:17.636Z,29.2
2017-10-11T01:53:17.485Z,29.2
2017-10-11T01:54:18.059Z,29.2
2017-10-11T01:55:17.804Z,29.2
2017-10-11T01:56:17.611Z,29.1
2017-10-11T01:57:17.921Z,29.1
2017-10-11T01:58:17.991Z,29.1
2017-10-11T01:59:18.001Z,29.1
2017-10-11T02:00:18.114Z,29.1
2017-10-11T02:01:17.836Z,29.1
2017-10-11T02:02:17.936Z,29.2
2017-10-11T02:03:17.892Z,29.2
2017-10-11T02:04:17.866Z,29.2
2017-10-11T02:05:17.941Z,29.2
2017-10-11T02:06:18.278Z,29.2
2017-10-11T02:07:18.305Z,29.2
2017-10-11T02:08:18.299Z,29.1
2017-10-11T02:09:18.126Z,29.1
2017-10-11T02:10:18.220Z,29.1
2017-10-11T02:11:18.573Z,29.1
2017-10-11T02:12:18.888Z,29.1
2017-10-11T02:13:18.470Z,29.1
2017-10-11T02:14:18.529Z,29.1
2017-10-11T02:15:18.573Z,29.2
2017-10-11T02:16:18.912Z,29.1
2017-10-11T02:17:18.795Z,29.1
2017-10-11T02:18:19.002Z,29.1
2017-10-11T02:19:18.761Z,29.1
2017-10-11T02:20:18.791Z,29.1
2017-10-11T02:21:18.869Z,29.1
2017-10-11T02:22:19.100Z,29.1
2017-10-11T02:23:18.992Z,29.1
2017-10-11T02:24:19.317Z,29.1
2017-10-11T02:25:19.158Z,29.1
2017-10-11T02:26:19.278Z,29.1
2017-10-11T02:27:19.451Z,29.1
2017-10-11T02:28:19.604Z,29.1
2017-10-11T02:29:19.379Z,29.1
2017-10-11T02:30:19.876Z,29.1
2017-10-11T02:31:19.509Z,29.1
2017-10-11T02:32:19.782Z,29.1
2017-10-11T02:33:19.819Z,29.1
2017-10-11T02:34:19.799Z,29.1
2017-10-11T02:35:19.878Z,29.1
2017-10-11T02:36:20.159Z,29.1
2017-10-11T02:37:19.678Z,29.1
2017-10-11T02:38:19.799Z,29.1
2017-10-11T02:39:19.998Z,29.1
2017-10-11T02:40:19.843Z,29.1
2017-10-11T02:41:20.020Z,29.1
2017-10-11T02:42:20.216Z,29.1
2017-10-11T02:43:19.963Z,29.1
2017-10-11T02:44:20.103Z,29.1
2017-10-11T02:45:20.160Z,29.1
2017-10-11T02:46:20.116Z,29.1
2017-10-11T02:47:20.181Z,29.1
2017-10-11T02:48:20.484Z,29.1
2017-10-11T02:49:20.489Z,29.1
2017-10-11T02:50:20.560Z,29.1
2017-10-11T02:51:20.552Z,29.1
2017-10-11T02:52:20.397Z,29.1
2017-10-11T02:53:20.732Z,29.1
2017-10-11T02:54:20.834Z,29.1
2017-10-11T02:55:20.857Z,29.1
2017-10-11T02:56:20.687Z,29.1
2017-10-11T02:57:20.891Z,29.1
2017-10-11T02:58:20.745Z,29.1
2017-10-11T02:59:20.805Z,29.1
2017-10-11T03:00:21.353Z,29.1
2017-10-11T03:01:21.471Z,29.1
2017-10-11T03:02:21.003Z,29.1
2017-10-11T03:03:21.269Z,29.1
2017-10-11T03:04:21.091Z,29.1
2017-10-11T03:05:21.380Z,29.1
2017-10-11T03:06:21.432Z,29.1
2017-10-11T03:07:21.444Z,29.1
2017-10-11T03:08:21.469Z,29.1
2017-10-11T03:09:21.306Z,29.1
2017-10-11T03:10:21.565Z,29.1
2017-10-11T03:11:21.638Z,29.1
2017-10-11T03:12:21.969Z,29.1
2017-10-11T03:13:21.783Z,29.1
2017-10-11T03:14:21.646Z,29.1
2017-10-11T03:15:21.769Z,29.1
2017-10-11T03:16:21.829Z,29.1
2017-10-11T03:17:21.848Z,29.1
2017-10-11T03:18:22.225Z,29.1
2017-10-11T03:19:22.266Z,29.1
2017-10-11T03:20:23.053Z,29.1
2017-10-11T03:21:22.427Z,29.1
2017-10-11T03:22:22.504Z,29.1
2017-10-11T03:23:22.466Z,29.1
2017-10-11T03:24:22.557Z,29.1
2017-10-11T03:25:22.330Z,29.1
2017-10-11T03:26:22.369Z,29.1
2017-10-11T03:27:22.628Z,29.1
2017-10-11T03:28:22.740Z,29.1
2017-10-11T03:29:22.706Z,29.1
2017-10-11T03:30:22.769Z,29.1
2017-10-11T03:31:22.619Z,29.1
2017-10-11T03:32:22.858Z,29.1
2017-10-11T03:33:22.746Z,29.1
2017-10-11T03:34:22.818Z,29.1
2017-10-11T03:35:22.851Z,29.1
2017-10-11T03:36:23.211Z,29.1
2017-10-11T03:37:23.165Z,29.1
2017-10-11T03:38:23.030Z,29.1
2017-10-11T03:39:22.993Z,29.1
2017-10-11T03:40:23.330Z,29.1
2017-10-11T03:41:23.297Z,29.1
2017-10-11T03:42:23.539Z,29.1
2017-10-11T03:43:23.421Z,29.1
2017-10-11T03:44:23.445Z,29.1
2017-10-11T03:45:23.269Z,29.1
2017-10-11T03:46:23.316Z,29.1
2017-10-11T03:47:23.407Z,29.1
2017-10-11T03:48:23.875Z,29.1
2017-10-11T03:49:23.742Z,29.1
2017-10-11T03:50:23.785Z,29.1
2017-10-11T03:51:23.618Z,29.1
2017-10-11T03:52:23.692Z,29.1
2017-10-11T03:53:23.676Z,29.1
2017-10-11T03:54:24.200Z,29.1
2017-10-11T03:55:23.988Z,29.1
2017-10-11T03:56:24.011Z,29.1
2017-10-11T03:57:24.033Z,29.1
2017-10-11T03:58:23.937Z,29.1
2017-10-11T03:59:23.928Z,29.1
2017-10-11T04:00:24.338Z,29.1
2017-10-11T04:01:24.048Z,29.1
2017-10-11T04:02:24.310Z,29.1
2017-10-11T04:03:24.399Z,29.1
2017-10-11T04:04:24.191Z,29.1
2017-10-11T04:05:24.281Z,29.2
2017-10-11T04:06:24.757Z,29.3
2017-10-11T04:07:24.536Z,29.3
2017-10-11T04:08:24.422Z,29.3
2017-10-11T04:09:24.620Z,29.4
2017-10-11T04:10:24.632Z,29.4
2017-10-11T04:11:24.751Z,29.4
2017-10-11T04:12:24.887Z,29.3
2017-10-11T04:13:24.652Z,29.3
2017-10-11T04:14:24.921Z,29.3
2017-10-11T04:15:24.926Z,29.2
2017-10-11T04:16:24.823Z,29.2
2017-10-11T04:17:24.910Z,29.2
2017-10-11T04:18:25.174Z,29.1
2017-10-11T04:19:24.918Z,29.1
2017-10-11T04:20:25.222Z,29.1
2017-10-11T04:21:25.106Z,29.1
2017-10-11T04:22:25.103Z,29.1
2017-10-11T04:23:25.229Z,29.1
2017-10-11T04:24:25.458Z,29.1
2017-10-11T04:25:25.397Z,29.1
2017-10-11T04:26:25.556Z,29.2
2017-10-11T04:27:25.562Z,29.2
2017-10-11T04:28:25.616Z,29.2
2017-10-11T04:29:25.414Z,29.1
2017-10-11T04:30:25.943Z,28.9
2017-10-11T04:31:25.796Z,28.6
2017-10-11T04:32:25.598Z,28.3
2017-10-11T04:33:25.847Z,28
2017-10-11T04:34:25.685Z,27.7
2017-10-11T04:35:25.935Z,27.5
2017-10-11T04:36:26.214Z,27.3
2017-10-11T04:37:26.044Z,27.1
2017-10-11T04:38:26.109Z,26.9
2017-10-11T04:39:25.989Z,26.9
2017-10-11T04:40:25.967Z,26.8
2017-10-11T04:41:26.100Z,26.6
2017-10-11T04:42:27.290Z,26.6
2017-10-11T04:43:26.339Z,26.5
2017-10-11T04:44:26.300Z,26.5
2017-10-11T04:45:26.401Z,26.5
2017-10-11T04:46:26.560Z,26.4
2017-10-11T04:47:26.663Z,26.3
2017-10-11T04:48:26.942Z,26.3
2017-10-11T04:49:26.525Z,26.2
2017-10-11T04:50:26.561Z,26.2
2017-10-11T04:51:26.712Z,26.1
2017-10-11T04:52:26.921Z,26.1
2017-10-11T04:53:27.059Z,26.1
2017-10-11T04:54:27.079Z,26
2017-10-11T04:55:27.099Z,26
2017-10-11T04:56:26.966Z,25.9
2017-10-11T04:57:27.170Z,25.9
2017-10-11T04:58:26.985Z,25.9
2017-10-11T04:59:27.117Z,25.8
2017-10-11T05:00:27.649Z,25.7
2017-10-11T05:01:27.468Z,25.7
2017-10-11T05:02:27.180Z,25.7
2017-10-11T05:03:27.431Z,25.6
2017-10-11T05:04:27.413Z,25.6
2017-10-11T05:05:27.592Z,25.6
2017-10-11T05:06:27.737Z,25.6
2017-10-11T05:07:27.726Z,25.6
2017-10-11T05:08:27.488Z,25.6
2017-10-11T05:09:27.554Z,25.6
2017-10-11T05:10:27.594Z,25.6
2017-10-11T05:11:27.701Z,25.7
2017-10-11T05:12:28.275Z,25.7
2017-10-11T05:13:28.024Z,25.7
2017-10-11T05:14:28.096Z,25.7
2017-10-11T05:15:28.097Z,25.7
2017-10-11T05:16:27.957Z,25.7
2017-10-11T05:17:28.258Z,25.7
2017-10-11T05:18:28.599Z,25.8
2017-10-11T05:19:28.333Z,25.8
2017-10-11T05:20:28.201Z,25.8
2017-10-11T05:21:28.181Z,25.8
2017-10-11T05:22:28.413Z,25.8
2017-10-11T05:23:28.443Z,25.9
2017-10-11T05:24:28.531Z,25.9
2017-10-11T05:25:28.566Z,25.9
2017-10-11T05:26:28.500Z,25.9
2017-10-11T05:27:28.359Z,25.9
2017-10-11T05:28:28.348Z,25.9
2017-10-11T05:29:28.470Z,25.9
2017-10-11T05:30:29.054Z,25.8
2017-10-11T05:31:28.717Z,25.8
2017-10-11T05:32:28.666Z,25.8
2017-10-11T05:33:28.664Z,25.8
2017-10-11T05:34:28.899Z,25.8
2017-10-11T05:35:28.737Z,25.8
2017-10-11T05:36:29.116Z,25.8
2017-10-11T05:37:28.894Z,25.9
2017-10-11T05:38:28.968Z,25.9
2017-10-11T05:39:29.104Z,25.9
2017-10-11T05:40:28.931Z,25.9
2017-10-11T05:41:28.955Z,25.9
2017-10-11T05:42:29.130Z,25.9
2017-10-11T05:43:29.157Z,25.9
2017-10-11T05:44:29.373Z,25.9
2017-10-11T05:45:29.171Z,25.9
2017-10-11T05:46:29.512Z,25.9
2017-10-11T05:47:29.723Z,26
2017-10-11T05:48:29.628Z,26
2017-10-11T05:49:29.553Z,26
2017-10-11T05:50:29.760Z,26
2017-10-11T05:51:29.594Z,26
2017-10-11T05:52:29.714Z,26.1
2017-10-11T05:53:29.681Z,26.1
2017-10-11T05:54:29.739Z,26.1
2017-10-11T05:55:29.969Z,26.1
2017-10-11T05:56:29.979Z,26.2
2017-10-11T05:57:29.975Z,26.2
2017-10-11T05:58:30.017Z,26.2
2017-10-11T05:59:29.828Z,26.2
2017-10-11T06:00:30.406Z,26.2
2017-10-11T06:01:30.009Z,26.2
2017-10-11T06:02:30.198Z,26.2
2017-10-11T06:03:30.027Z,26.3
2017-10-11T06:04:30.243Z,26.3
2017-10-11T06:05:30.263Z,26.4
2017-10-11T06:06:30.552Z,26.4
2017-10-11T06:07:30.420Z,26.5
2017-10-11T06:08:30.585Z,26.5
2017-10-11T06:09:30.479Z,26.6
2017-10-11T06:10:30.528Z,26.5
2017-10-11T06:11:30.848Z,26.5
2017-10-11T06:12:30.938Z,26.6
2017-10-11T06:13:30.619Z,26.6
2017-10-11T06:14:30.776Z,26.6
2017-10-11T06:15:31.036Z,26.5
2017-10-11T06:16:30.752Z,26.5
2017-10-11T06:17:30.845Z,26.4
2017-10-11T06:18:31.530Z,26.4
2017-10-11T06:19:31.154Z,26.3
2017-10-11T06:20:31.132Z,26.3
2017-10-11T06:21:30.914Z,26.3
2017-10-11T06:22:30.953Z,26.2
2017-10-11T06:23:31.237Z,26.2
2017-10-11T06:24:31.489Z,26.2
2017-10-11T06:25:31.278Z,26.1
2017-10-11T06:26:31.312Z,26
2017-10-11T06:27:31.670Z,26.1
2017-10-11T06:28:31.494Z,26.1
2017-10-11T06:29:31.382Z,26
2017-10-11T06:30:32.143Z,26
2017-10-11T06:31:31.596Z,26
2017-10-11T06:32:31.501Z,26.1
2017-10-11T06:33:34.596Z,26
2017-10-11T06:34:31.759Z,25.9
2017-10-11T06:35:31.538Z,26
2017-10-11T06:36:31.869Z,26
2017-10-11T06:37:31.666Z,26
2017-10-11T06:38:31.862Z,26
2017-10-11T06:39:31.795Z,26
2017-10-11T06:40:31.905Z,26
2017-10-11T06:41:31.757Z,26.1
2017-10-11T06:42:32.310Z,26.1
2017-10-11T06:43:32.520Z,26.1
2017-10-11T06:44:31.954Z,26.1
2017-10-11T06:45:31.918Z,26.1
2017-10-11T06:46:32.011Z,26.1
2017-10-11T06:47:32.409Z,26
2017-10-11T06:48:32.586Z,26
2017-10-11T06:49:32.692Z,26
2017-10-11T06:50:32.289Z,26
2017-10-11T06:51:32.278Z,26
2017-10-11T06:52:32.549Z,26
2017-10-11T06:53:35.242Z,26
2017-10-11T06:54:33.365Z,26
2017-10-11T06:55:32.854Z,26
2017-10-11T06:56:32.538Z,26
2017-10-11T06:57:32.855Z,26
2017-10-11T06:58:34.104Z,26
2017-10-11T06:59:33.614Z,26.1
2017-10-11T07:00:42.517Z,26
2017-10-11T07:01:44.047Z,26
2017-10-11T07:02:42.123Z,26
2017-10-11T07:03:41.673Z,26
2017-10-11T07:04:42.576Z,26
2017-10-11T07:05:37.067Z,26
2017-10-11T07:06:36.907Z,26
2017-10-11T07:07:34.483Z,26.1
2017-10-11T07:08:33.448Z,26.1
2017-10-11T07:09:35.111Z,26.1
2017-10-11T07:10:33.831Z,26.1
2017-10-11T07:11:33.275Z,26.2
2017-10-11T07:12:33.517Z,26.1
2017-10-11T07:13:35.182Z,26.1
2017-10-11T07:14:36.915Z,26.1
2017-10-11T07:15:34.874Z,26.1
2017-10-11T07:16:35.375Z,26.1
2017-10-11T07:17:33.649Z,26.1
2017-10-11T07:18:33.791Z,26.1
2017-10-11T07:19:34.084Z,26.2
2017-10-11T07:20:33.601Z,26.3
2017-10-11T07:21:34.094Z,26.3
2017-10-11T07:22:33.756Z,26.3
2017-10-11T07:23:33.740Z,26.3
2017-10-11T07:24:33.980Z,26.2
2017-10-11T07:25:33.764Z,26.2
2017-10-11T07:26:33.923Z,26.2
2017-10-11T07:27:34.024Z,26.2
2017-10-11T07:28:34.109Z,26.2
2017-10-11T07:29:34.140Z,26.2
2017-10-11T07:30:34.211Z,26.2
2017-10-11T07:31:33.970Z,26.2
2017-10-11T07:32:34.160Z,26.2
2017-10-11T07:33:34.020Z,26.2
2017-10-11T07:34:34.235Z,26.3
2017-10-11T07:35:34.146Z,26.3
2017-10-11T07:36:34.624Z,26.2
2017-10-11T07:37:34.352Z,26.3
2017-10-11T07:38:34.472Z,26.3
2017-10-11T07:39:38.748Z,26.2
2017-10-11T07:40:34.685Z,26.2
2017-10-11T07:41:34.713Z,26.2
2017-10-11T07:42:35.088Z,26.1
2017-10-11T07:43:34.595Z,26.1
2017-10-11T07:44:34.915Z,26
2017-10-11T07:45:35.132Z,26
2017-10-11T07:46:35.074Z,26
2017-10-11T07:47:38.682Z,25.8
2017-10-11T07:48:35.373Z,26
2017-10-11T07:49:35.246Z,26
2017-10-11T07:50:35.402Z,26
2017-10-11T07:51:35.384Z,26
2017-10-11T07:52:35.342Z,26
2017-10-11T07:53:35.381Z,26
2017-10-11T07:54:35.499Z,26.1
2017-10-11T07:55:35.675Z,26.2
2017-10-11T07:56:35.897Z,26.2
2017-10-11T07:57:35.360Z,26.2
2017-10-11T07:58:35.683Z,26.2
2017-10-11T07:59:35.548Z,26.2
2017-10-11T08:00:36.048Z,26.2
2017-10-11T08:01:35.509Z,26.2
2017-10-11T08:02:35.725Z,26.1
2017-10-11T08:03:35.727Z,26.1
2017-10-11T08:04:35.869Z,26.1
2017-10-11T08:05:35.823Z,26.1
2017-10-11T08:06:36.039Z,26.2
2017-10-11T08:07:35.717Z,26.2
2017-10-11T08:08:36.080Z,26.3
2017-10-11T08:09:36.278Z,26.3
2017-10-11T08:10:36.541Z,26.3
2017-10-11T08:11:35.939Z,26.3
2017-10-11T08:12:37.265Z,26.3
2017-10-11T08:13:37.504Z,26.3
2017-10-11T08:14:36.238Z,26.3
2017-10-11T08:15:36.291Z,26.3
2017-10-11T08:16:37.635Z,26.3
2017-10-11T08:17:39.040Z,26.3
2017-10-11T08:18:38.150Z,26.2
2017-10-11T08:19:37.372Z,26.3
2017-10-11T08:20:40.658Z,26.3
2017-10-11T08:21:40.114Z,26.3
2017-10-11T08:22:37.687Z,26.3
2017-10-11T08:23:37.523Z,26.3
2017-10-11T08:24:36.889Z,26.3
2017-10-11T08:25:36.948Z,26.2
2017-10-11T08:26:36.766Z,26.3
2017-10-11T08:27:37.341Z,26.3
2017-10-11T08:28:36.925Z,26.3
2017-10-11T08:29:38.043Z,26.3
2017-10-11T08:30:38.427Z,26.3
2017-10-11T08:31:38.088Z,26.3
2017-10-11T08:32:38.294Z,26.3
2017-10-11T08:33:37.321Z,26.3
2017-10-11T08:34:37.487Z,26.3
2017-10-11T08:35:37.053Z,26.2
2017-10-11T08:36:37.590Z,26.2
2017-10-11T08:37:37.137Z,26.2
2017-10-11T08:38:37.663Z,26.2
2017-10-11T08:39:38.824Z,26.2
2017-10-11T08:40:39.177Z,26.2
2017-10-11T08:41:37.787Z,26.2
2017-10-11T08:42:37.991Z,26.2
2017-10-11T08:43:39.545Z,26.2
2017-10-11T08:44:40.461Z,26.2
2017-10-11T08:45:39.998Z,26.2
2017-10-11T08:46:37.844Z,26.2
2017-10-11T08:47:37.804Z,26.2
2017-10-11T08:48:39.800Z,26.2
2017-10-11T08:49:38.468Z,26.2
2017-10-11T08:50:38.769Z,26.3
2017-10-11T08:51:39.836Z,26.3
2017-10-11T08:52:38.225Z,26.3
2017-10-11T08:53:38.461Z,26.3
2017-10-11T08:54:39.038Z,26.3
2017-10-11T08:55:40.245Z,26.2
2017-10-11T08:56:38.335Z,26.2
2017-10-11T08:57:40.060Z,26.3
2017-10-11T08:58:40.754Z,26.3
2017-10-11T08:59:38.857Z,26.3
2017-10-11T09:00:38.465Z,26.3
2017-10-11T09:01:39.181Z,26.3
2017-10-11T09:02:38.821Z,26.3
2017-10-11T09:03:39.462Z,26.4
2017-10-11T09:04:38.796Z,26.4
2017-10-11T09:05:40.053Z,26.5
2017-10-11T09:06:39.845Z,26.5
2017-10-11T09:07:39.260Z,26.7
2017-10-11T09:08:38.571Z,26.7
2017-10-11T09:09:39.999Z,26.7
2017-10-11T09:10:39.243Z,26.7
2017-10-11T09:11:38.744Z,26.7
2017-10-11T09:12:39.179Z,26.6
2017-10-11T09:13:39.559Z,26.6
2017-10-11T09:14:39.059Z,26.6
2017-10-11T09:15:39.436Z,26.6
2017-10-11T09:16:40.182Z,26.7
2017-10-11T09:17:39.753Z,26.7
2017-10-11T09:18:39.567Z,26.7
2017-10-11T09:19:40.382Z,26.6
2017-10-11T09:20:39.412Z,26.6
2017-10-11T09:21:39.244Z,26.5
2017-10-11T09:22:39.199Z,26.5
2017-10-11T09:23:39.987Z,26.6
2017-10-11T09:24:39.669Z,26.6
2017-10-11T09:25:39.432Z,26.7
2017-10-11T09:26:40.293Z,26.8
2017-10-11T09:27:39.861Z,26.8
2017-10-11T09:28:42.515Z,26.8
2017-10-11T09:29:40.249Z,26.8
2017-10-11T09:30:40.397Z,26.9
2017-10-11T09:31:44.081Z,26.9
2017-10-11T09:32:40.056Z,26.9
2017-10-11T09:33:39.820Z,26.9
2017-10-11T09:34:41.450Z,26.9
2017-10-11T09:35:40.235Z,26.9
2017-10-11T09:36:42.357Z,26.9
2017-10-11T09:37:40.882Z,26.8
2017-10-11T09:38:40.223Z,26.8
2017-10-11T09:39:40.391Z,26.8
2017-10-11T09:40:40.158Z,26.9
2017-10-11T09:41:40.309Z,26.8
2017-10-11T09:42:40.632Z,26.8
2017-10-11T09:43:40.382Z,26.9
2017-10-11T09:44:40.634Z,26.8
2017-10-11T09:45:40.630Z,26.8
2017-10-11T09:46:40.730Z,26.7
2017-10-11T09:47:41.643Z,26.7
2017-10-11T09:48:41.024Z,26.8
2017-10-11T09:49:40.578Z,26.8
2017-10-11T09:50:40.839Z,26.8
2017-10-11T09:51:40.624Z,26.8
2017-10-11T09:52:42.527Z,26.8
2017-10-11T09:53:40.950Z,26.8
2017-10-11T09:54:44.031Z,26.7
2017-10-11T09:55:43.499Z,26.7
2017-10-11T09:56:42.568Z,26.8
2017-10-11T09:57:45.857Z,26.8
2017-10-11T09:58:50.740Z,26.8
2017-10-11T09:59:47.313Z,26.9
2017-10-11T10:00:46.988Z,26.8
2017-10-11T10:01:46.162Z,26.7
2017-10-11T10:02:48.451Z,26.7
2017-10-11T10:03:48.811Z,26.7
2017-10-11T10:04:47.730Z,26.7
2017-10-11T10:05:46.251Z,26.6
2017-10-11T10:06:46.584Z,26.6
2017-10-11T10:07:50.386Z,26.5
2017-10-11T10:08:46.204Z,26.5
2017-10-11T10:09:42.927Z,26.5
2017-10-11T10:10:46.663Z,26.5
2017-10-11T10:11:44.123Z,26.5
2017-10-11T10:12:43.494Z,26.5
2017-10-11T10:13:47.291Z,26.5
2017-10-11T10:14:43.983Z,26.5
2017-10-11T10:15:46.583Z,26.5
2017-10-11T10:16:43.486Z,26.4
2017-10-11T10:17:43.012Z,26.4
2017-10-11T10:18:44.728Z,26.3
2017-10-11T10:19:44.832Z,26.4
2017-10-11T10:20:46.868Z,26.4
2017-10-11T10:21:44.187Z,26.4
2017-10-11T10:22:46.989Z,26.4
2017-10-11T10:23:45.223Z,26.4
2017-10-11T10:24:45.009Z,26.3
2017-10-11T10:25:43.928Z,26.3
2017-10-11T10:26:42.819Z,26.3
2017-10-11T10:27:42.845Z,26.3
2017-10-11T10:28:43.743Z,26.2
2017-10-11T10:29:42.833Z,26.2
2017-10-11T10:30:43.644Z,26.2
2017-10-11T10:31:43.092Z,26.2
2017-10-11T10:32:42.968Z,26.2
2017-10-11T10:33:43.232Z,26.2
2017-10-11T10:34:42.847Z,26.1
2017-10-11T10:35:43.075Z,26.2
2017-10-11T10:36:43.429Z,26.1
2017-10-11T10:37:43.098Z,26.1
2017-10-11T10:38:43.246Z,26.2
2017-10-11T10:39:43.641Z,26.2
2017-10-11T10:40:43.335Z,26.2
2017-10-11T10:41:43.184Z,26.1
2017-10-11T10:42:43.774Z,26.1
2017-10-11T10:43:43.545Z,26.1
2017-10-11T10:44:43.755Z,26
2017-10-11T10:45:43.714Z,26
2017-10-11T10:46:43.505Z,26
2017-10-11T10:47:43.504Z,26
2017-10-11T10:48:44.471Z,26
2017-10-11T10:49:43.670Z,26
2017-10-11T10:50:43.761Z,26.1
2017-10-11T10:51:44.006Z,26.1
2017-10-11T10:52:43.904Z,26.1
2017-10-11T10:53:45.839Z,26.1
2017-10-11T10:54:44.827Z,26.1
2017-10-11T10:55:44.829Z,26.1
2017-10-11T10:56:44.091Z,26.1
2017-10-11T10:57:44.451Z,26.1
2017-10-11T10:58:44.449Z,26.1
2017-10-11T10:59:44.535Z,26.1
2017-10-11T11:00:44.691Z,26.2
2017-10-11T11:01:44.583Z,26.2
2017-10-11T11:02:44.489Z,26.2
2017-10-11T11:03:44.710Z,26.2
2017-10-11T11:04:44.655Z,26.2
2017-10-11T11:05:44.665Z,26.3
2017-10-11T11:06:45.643Z,26.3
2017-10-11T11:07:44.826Z,26.3
2017-10-11T11:08:45.280Z,26.2
2017-10-11T11:09:45.629Z,26.2
2017-10-11T11:10:45.252Z,26.1
2017-10-11T11:11:46.019Z,26.1
2017-10-11T11:12:45.747Z,26.1
2017-10-11T11:13:45.300Z,26.1
2017-10-11T11:14:45.058Z,26.1
2017-10-11T11:15:45.300Z,26.1
2017-10-11T11:16:45.298Z,26.1
2017-10-11T11:17:46.184Z,26.2
2017-10-11T11:18:45.789Z,26.2
2017-10-11T11:19:45.265Z,26.2
2017-10-11T11:20:45.534Z,26.1
2017-10-11T11:21:45.385Z,26.2
2017-10-11T11:22:45.589Z,26.3
2017-10-11T11:23:45.606Z,26.3
2017-10-11T11:24:45.715Z,26.2
2017-10-11T11:25:45.531Z,26.1
2017-10-11T11:26:45.574Z,26.1
2017-10-11T11:27:45.840Z,26.1
2017-10-11T11:28:45.963Z,26
2017-10-11T11:29:46.009Z,25.9
2017-10-11T11:30:47.147Z,25.8
2017-10-11T11:31:46.144Z,25.8
2017-10-11T11:32:46.236Z,25.8
2017-10-11T11:33:46.330Z,25.8
2017-10-11T11:34:46.282Z,25.8
2017-10-11T11:35:46.177Z,25.8
2017-10-11T11:36:46.436Z,25.8
2017-10-11T11:37:46.686Z,25.8
2017-10-11T11:38:46.238Z,25.8
2017-10-11T11:39:46.265Z,25.8
2017-10-11T11:40:46.532Z,25.8
2017-10-11T11:41:46.567Z,25.7
2017-10-11T11:42:46.731Z,25.7
2017-10-11T11:43:46.678Z,25.7
2017-10-11T11:44:46.676Z,25.7
2017-10-11T11:45:46.502Z,25.7
2017-10-11T11:46:46.560Z,25.7
2017-10-11T11:47:46.693Z,25.7
2017-10-11T11:48:47.847Z,25.7
2017-10-11T11:49:46.955Z,25.6
2017-10-11T11:50:46.942Z,25.6
2017-10-11T11:51:46.804Z,25.6
2017-10-11T11:52:46.800Z,25.6
2017-10-11T11:53:49.847Z,25.7
2017-10-11T11:54:50.061Z,25.7
2017-10-11T11:55:49.608Z,25.7
2017-10-11T11:56:50.203Z,25.8
2017-10-11T11:57:50.879Z,25.8
2017-10-11T11:58:48.142Z,25.8
2017-10-11T11:59:48.660Z,25.8
2017-10-11T12:00:50.043Z,25.7
2017-10-11T12:01:48.596Z,25.8
2017-10-11T12:02:49.072Z,25.8
2017-10-11T12:03:50.099Z,25.8
2017-10-11T12:04:49.851Z,25.8
2017-10-11T12:05:47.957Z,25.8
2017-10-11T12:06:48.000Z,25.8
2017-10-11T12:07:47.765Z,25.8
2017-10-11T12:08:47.577Z,25.8
2017-10-11T12:09:49.941Z,25.7
2017-10-11T12:10:50.335Z,25.8
2017-10-11T12:11:50.600Z,25.8
2017-10-11T12:12:50.468Z,25.8
2017-10-11T12:13:50.229Z,25.8
2017-10-11T12:14:52.292Z,25.8
2017-10-11T12:15:51.682Z,25.9
2017-10-11T12:16:49.939Z,25.9
2017-10-11T12:17:50.645Z,25.9
2017-10-11T12:18:48.148Z,25.9
2017-10-11T12:19:48.406Z,26
2017-10-11T12:20:48.457Z,25.9
2017-10-11T12:21:49.331Z,25.9
2017-10-11T12:22:48.270Z,25.8
2017-10-11T12:23:48.780Z,25.8
2017-10-11T12:24:48.591Z,25.8
2017-10-11T12:25:48.353Z,25.8
2017-10-11T12:26:48.740Z,25.7
2017-10-11T12:27:48.495Z,25.8
2017-10-11T12:28:48.599Z,25.8
2017-10-11T12:29:48.906Z,25.8
2017-10-11T12:30:50.756Z,25.8
2017-10-11T12:31:51.806Z,25.8
2017-10-11T12:32:51.623Z,25.8
2017-10-11T12:33:50.052Z,25.8
2017-10-11T12:34:50.257Z,25.8
2017-10-11T12:35:50.156Z,25.9
2017-10-11T12:36:50.705Z,25.9
2017-10-11T12:37:51.267Z,25.9
2017-10-11T12:38:52.630Z,25.9
2017-10-11T12:39:50.240Z,25.9
2017-10-11T12:40:51.238Z,25.9
2017-10-11T12:41:50.797Z,25.9
2017-10-11T12:42:50.948Z,25.9
2017-10-11T12:43:49.600Z,25.9
2017-10-11T12:44:49.460Z,26
2017-10-11T12:45:49.568Z,26
2017-10-11T12:46:49.999Z,26
2017-10-11T12:47:50.059Z,26
2017-10-11T12:48:49.543Z,26
2017-10-11T12:49:49.555Z,26.1
2017-10-11T12:50:49.572Z,26
2017-10-11T12:51:49.965Z,26.1
2017-10-11T12:52:49.784Z,26
2017-10-11T12:53:50.030Z,26
2017-10-11T12:54:49.930Z,26.1
2017-10-11T12:55:50.074Z,26
2017-10-11T12:56:50.349Z,26
2017-10-11T12:57:50.316Z,26
2017-10-11T12:58:50.167Z,26.1
2017-10-11T12:59:51.383Z,26.1
2017-10-11T13:00:50.404Z,26
2017-10-11T13:01:50.122Z,26
2017-10-11T13:02:50.392Z,26
2017-10-11T13:03:50.330Z,26
2017-10-11T13:04:50.421Z,26.1
2017-10-11T13:05:50.727Z,26.2
2017-10-11T13:06:50.583Z,26.3
2017-10-11T13:07:50.975Z,26.4
2017-10-11T13:08:51.027Z,26.6
2017-10-11T13:09:52.740Z,26.7
2017-10-11T13:10:50.599Z,26.8
2017-10-11T13:11:50.924Z,26.9
2017-10-11T13:12:50.737Z,27
2017-10-11T13:13:50.782Z,27.1
2017-10-11T13:14:51.034Z,27.2
2017-10-11T13:15:50.877Z,27.3
2017-10-11T13:16:50.964Z,27.4
2017-10-11T13:17:51.200Z,27.5
2017-10-11T13:18:51.081Z,27.5
2017-10-11T13:19:51.073Z,27.6
2017-10-11T13:20:50.820Z,27.7
2017-10-11T13:21:50.947Z,27.7
2017-10-11T13:22:56.366Z,27.8
2017-10-11T13:23:51.312Z,27.8